createdAt,value
2022-09-04T00:00:19.553Z,3.45
2022-09-04T00:03:28.016Z,3.25
2022-09-04T00:06:02.918Z,3.25
2022-09-04T00:08:49.043Z,3.05
2022-09-04T00:11:43.272Z,3.40
2022-09-04T00:14:47.947Z,3.60
2022-09-04T00:17:23.829Z,3.00
2022-09-04T00:19:57.095Z,2.95
2022-09-04T00:22:34.623Z,3.10
2022-09-04T00:25:11.960Z,2.75
2022-09-04T00:27:45.175Z,3.12
2022-09-04T00:30:39.281Z,2.87
2022-09-04T00:33:19.672Z,2.42
2022-09-04T00:35:59.452Z,2.70
2022-09-04T00:38:53.266Z,2.83
2022-09-04T00:41:47.094Z,2.72
2022-09-04T00:44:22.794Z,2.75
2022-09-04T00:47:09.682Z,2.70
2022-09-04T00:49:46.790Z,2.70
2022-09-04T00:52:21.347Z,2.67
2022-09-04T00:55:09.223Z,2.98
2022-09-04T00:58:08.956Z,2.95
2022-09-04T01:00:38.233Z,3.00
2022-09-04T01:03:15.499Z,2.72
2022-09-04T01:06:02.211Z,2.62
2022-09-04T01:09:00.104Z,3.10
2022-09-04T01:11:55.282Z,2.62
2022-09-04T01:14:48.642Z,2.75
2022-09-04T01:17:51.143Z,3.30
2022-09-04T01:20:52.677Z,3.30
2022-09-04T01:23:56.139Z,3.02
2022-09-04T01:29:15.590Z,2.95
2022-09-04T01:31:55.050Z,3.33
2022-09-04T01:35:01.860Z,3.12
2022-09-04T01:37:38.892Z,3.50
2022-09-04T01:40:35.425Z,3.40
2022-09-04T01:43:01.770Z,3.20
2022-09-04T01:46:00.332Z,2.67
2022-09-04T01:48:37.547Z,3.20
2022-09-04T01:51:39.943Z,3.62
2022-09-04T01:54:39.495Z,3.30
2022-09-04T01:57:37.427Z,3.37
2022-09-04T02:00:18.784Z,3.25
2022-09-04T02:03:21.822Z,3.72
2022-09-04T02:06:07.479Z,3.65
2022-09-04T02:09:25.294Z,3.50
2022-09-04T02:12:07.167Z,3.75
2022-09-04T02:14:55.876Z,3.60
2022-09-04T02:17:55.714Z,3.40
2022-09-04T02:20:56.957Z,3.58
2022-09-04T02:23:53.091Z,3.72
2022-09-04T02:26:38.257Z,4.00
2022-09-04T02:29:16.192Z,3.83
2022-09-04T02:32:09.629Z,4.25
2022-09-04T02:35:05.304Z,4.08
2022-09-04T02:37:42.306Z,3.50
2022-09-04T02:40:44.784Z,3.83
2022-09-04T02:43:22.477Z,3.95
2022-09-04T02:46:00.183Z,3.62
2022-09-04T02:48:48.739Z,4.08
2022-09-04T02:51:26.566Z,4.50
2022-09-04T02:54:07.039Z,3.87
2022-09-04T02:56:44.607Z,3.98
2022-09-04T02:59:41.726Z,3.72
2022-09-04T03:02:30.488Z,4.05
2022-09-04T03:07:51.535Z,4.05
2022-09-04T03:10:25.051Z,4.30
2022-09-04T03:13:05.412Z,3.95
2022-09-04T03:16:00.143Z,4.00
2022-09-04T03:19:01.712Z,4.37
2022-09-04T03:21:56.730Z,4.37
2022-09-04T03:24:34.523Z,3.83
2022-09-04T03:27:06.068Z,4.60
2022-09-04T03:29:41.682Z,4.60
2022-09-04T03:32:54.954Z,5.20
2022-09-04T03:36:25.196Z,4.60
2022-09-04T03:38:59.160Z,4.53
2022-09-04T03:41:37.223Z,4.70
2022-09-04T03:44:27.294Z,4.50
2022-09-04T03:47:04.898Z,4.95
2022-09-04T03:49:42.777Z,4.87
2022-09-04T03:52:32.936Z,5.20
2022-09-04T03:55:16.526Z,4.75
2022-09-04T03:57:51.852Z,5.00
2022-09-04T04:00:22.510Z,5.05
2022-09-04T04:03:31.314Z,4.08
2022-09-04T04:06:23.980Z,4.50
2022-09-04T04:08:55.457Z,4.90
2022-09-04T04:11:54.269Z,5.28
2022-09-04T04:14:33.898Z,5.22
2022-09-04T04:17:12.644Z,5.08
2022-09-04T04:19:48.336Z,4.22
2022-09-04T04:22:43.250Z,4.60
2022-09-04T04:25:48.809Z,4.80
2022-09-04T04:29:00.722Z,5.22
2022-09-04T04:31:44.610Z,4.05
2022-09-04T04:34:19.094Z,4.28
2022-09-04T04:36:59.793Z,4.28
2022-09-04T04:39:46.555Z,4.60
2022-09-04T04:42:44.507Z,4.35
2022-09-04T04:45:38.738Z,4.62
2022-09-04T04:48:31.758Z,4.83
2022-09-04T04:51:05.188Z,4.42
2022-09-04T04:53:48.203Z,4.45
2022-09-04T04:59:08.756Z,4.30
2022-09-04T05:02:17.965Z,4.35
2022-09-04T05:05:05.190Z,4.45
2022-09-04T05:08:08.553Z,4.33
2022-09-04T05:10:57.865Z,4.40
2022-09-04T05:13:44.213Z,5.03
2022-09-04T05:16:23.071Z,4.17
2022-09-04T05:18:56.716Z,4.45
2022-09-04T05:21:31.848Z,4.78
2022-09-04T05:24:20.039Z,4.03
2022-09-04T05:27:25.720Z,4.55
2022-09-04T05:30:06.148Z,4.08
2022-09-04T05:32:40.499Z,4.30
2022-09-04T05:35:12.165Z,4.00
2022-09-04T05:37:46.913Z,4.20
2022-09-04T05:40:19.680Z,4.65
2022-09-04T05:45:21.328Z,4.17
2022-09-04T05:48:09.499Z,4.62
2022-09-04T05:50:39.352Z,4.72
2022-09-04T05:53:11.811Z,3.90
2022-09-04T05:55:56.820Z,4.05
2022-09-04T05:58:26.946Z,4.60
2022-09-04T06:01:00.826Z,4.35
2022-09-04T06:03:42.447Z,3.90
2022-09-04T06:06:46.509Z,3.95
2022-09-04T06:09:37.727Z,3.93
2022-09-04T06:12:46.562Z,3.80
2022-09-04T06:15:55.765Z,3.58
2022-09-04T06:21:21.733Z,3.80
2022-09-04T06:23:53.442Z,3.80
2022-09-04T06:26:45.132Z,3.47
2022-09-04T06:29:28.764Z,4.05
2022-09-04T06:40:47.858Z,3.67
2022-09-04T06:43:38.476Z,3.85
2022-09-04T06:46:20.433Z,3.87
2022-09-04T06:48:54.858Z,3.47
2022-09-04T06:51:27.189Z,3.95
2022-09-04T06:54:07.532Z,3.77
2022-09-04T07:07:14.787Z,3.77
2022-09-04T07:12:24.717Z,4.10
2022-09-04T07:15:12.377Z,4.05
2022-09-04T07:37:56.474Z,3.97
2022-09-04T07:56:32.279Z,3.33
2022-09-04T08:09:56.515Z,2.80
2022-09-04T08:12:40.082Z,2.70
2022-09-04T08:15:21.635Z,2.80
2022-09-04T08:17:51.437Z,2.60
2022-09-04T08:20:41.440Z,2.50
2022-09-04T08:23:11.204Z,2.72
2022-09-04T08:25:47.001Z,2.50
2022-09-04T08:28:33.866Z,2.10
2022-09-04T08:31:20.593Z,2.23
2022-09-04T08:33:56.538Z,2.33
2022-09-04T08:36:26.702Z,2.45
2022-09-04T08:39:02.378Z,2.10
2022-09-04T08:41:41.561Z,2.20
2022-09-04T08:44:17.313Z,2.10
2022-09-04T08:47:03.805Z,2.00
2022-09-04T08:49:45.429Z,2.20
2022-09-04T08:52:33.139Z,2.12
2022-09-04T08:55:12.226Z,2.08
2022-09-04T08:58:00.539Z,2.13
2022-09-04T09:00:34.443Z,2.12
2022-09-04T09:03:23.342Z,1.95
2022-09-04T09:06:11.631Z,2.10
2022-09-04T09:08:41.419Z,1.90
2022-09-04T09:11:29.129Z,1.70
2022-09-04T09:14:05.753Z,1.82
2022-09-04T09:16:35.604Z,2.17
2022-09-04T09:19:24.938Z,2.05
2022-09-04T09:22:03.458Z,2.33
2022-09-04T09:24:33.270Z,2.20
2022-09-04T09:27:05.802Z,1.90
2022-09-04T09:29:35.649Z,2.08
2022-09-04T09:32:17.493Z,2.05
2022-09-04T09:35:02.477Z,2.20
2022-09-04T09:37:48.878Z,2.00
2022-09-04T09:40:33.993Z,2.00
2022-09-04T09:43:03.801Z,2.20
2022-09-04T09:45:36.476Z,1.75
2022-09-04T09:48:24.619Z,2.00
2022-09-04T09:50:57.382Z,2.12
2022-09-04T09:53:30.149Z,2.03
2022-09-04T09:56:16.550Z,1.95
2022-09-04T09:59:04.016Z,2.20
2022-09-04T10:01:36.754Z,2.08
2022-09-04T10:04:08.152Z,2.15
2022-09-04T10:06:39.806Z,2.15
2022-09-04T10:09:27.588Z,1.80
2022-09-04T10:11:57.405Z,2.23
2022-09-04T10:14:45.486Z,2.17
2022-09-04T10:17:24.220Z,1.90
2022-09-04T10:20:07.928Z,2.00
2022-09-04T10:22:46.545Z,2.10
2022-09-04T10:25:16.297Z,2.40
2022-09-04T10:27:54.813Z,2.33
2022-09-04T10:30:23.842Z,2.13
2022-09-04T10:32:56.772Z,2.40
2022-09-04T10:35:27.344Z,2.30
2022-09-04T10:38:13.879Z,2.45
2022-09-04T10:41:00.350Z,1.90
2022-09-04T10:43:33.040Z,2.40
2022-09-04T10:46:22.796Z,1.90
2022-09-04T10:48:56.965Z,2.07
2022-09-04T10:51:27.610Z,1.70
2022-09-04T10:54:15.271Z,1.90
2022-09-04T10:56:45.140Z,2.00
2022-09-04T10:59:21.098Z,2.00
2022-09-04T11:02:03.106Z,1.87
2022-09-04T11:04:33.868Z,2.00
2022-09-04T11:07:10.040Z,1.65
2022-09-04T11:09:44.803Z,1.60
2022-09-04T11:12:28.236Z,1.80
2022-09-04T11:15:16.115Z,1.60
2022-09-04T11:17:59.582Z,1.72
2022-09-04T11:20:45.142Z,1.90
2022-09-04T11:23:27.578Z,1.70
2022-09-04T11:26:35.956Z,1.70
2022-09-04T11:29:16.443Z,1.60
2022-09-04T11:31:57.259Z,1.80
2022-09-04T11:34:39.371Z,1.70
2022-09-04T11:37:40.255Z,1.70
2022-09-04T11:40:17.926Z,1.60
2022-09-04T11:42:58.152Z,1.57
2022-09-04T11:45:48.980Z,1.60
2022-09-04T11:48:37.330Z,1.50
2022-09-04T11:51:16.607Z,1.65
2022-09-04T11:54:06.356Z,1.67
2022-09-04T11:57:13.504Z,1.70
2022-09-04T12:00:00.225Z,1.65
2022-09-04T12:02:44.191Z,1.70
2022-09-04T12:05:26.651Z,1.43
2022-09-04T12:08:19.729Z,1.70
2022-09-04T12:11:04.601Z,1.60
2022-09-04T12:13:52.517Z,1.60
2022-09-04T12:16:27.054Z,1.52
2022-09-04T12:18:59.936Z,1.50
2022-09-04T12:21:31.339Z,1.50
2022-09-04T12:24:09.982Z,1.65
2022-09-04T12:26:58.135Z,1.60
2022-09-04T12:29:44.212Z,1.35
2022-09-04T12:32:22.910Z,1.50
2022-09-04T12:35:06.613Z,1.40
2022-09-04T12:37:36.475Z,1.40
2022-09-04T12:40:23.018Z,1.40
2022-09-04T12:43:04.923Z,1.30
2022-09-04T12:45:37.785Z,1.30
2022-09-04T12:48:11.173Z,1.23
2022-09-04T12:50:42.610Z,1.30
2022-09-04T12:53:23.304Z,1.45
2022-09-04T12:56:05.608Z,1.12
2022-09-04T12:58:44.574Z,1.20
2022-09-04T13:01:15.151Z,1.10
2022-09-04T13:04:01.610Z,1.40
2022-09-04T13:06:34.495Z,1.30
2022-09-04T13:09:07.017Z,1.17
2022-09-04T13:11:53.681Z,1.10
2022-09-04T13:14:40.050Z,1.40
2022-09-04T13:17:16.803Z,1.10
2022-09-04T13:19:55.882Z,1.30
2022-09-04T13:22:25.674Z,1.00
2022-09-04T13:24:57.118Z,1.10
2022-09-04T13:27:36.146Z,1.12
2022-09-04T13:30:15.520Z,1.25
2022-09-04T13:32:48.319Z,1.37
2022-09-04T13:35:26.395Z,1.20
2022-09-04T13:37:58.162Z,1.10
2022-09-04T13:41:06.607Z,1.10
2022-09-04T13:43:50.173Z,1.40
2022-09-04T13:46:44.318Z,1.20
2022-09-04T13:49:26.628Z,1.22
2022-09-04T13:52:07.492Z,1.40
2022-09-04T13:54:39.206Z,1.35
2022-09-04T13:57:18.015Z,1.50
2022-09-04T13:59:51.426Z,1.45
2022-09-04T14:02:25.131Z,1.47
2022-09-04T14:05:13.240Z,1.37
2022-09-04T14:07:45.491Z,1.25
2022-09-04T14:10:17.696Z,1.47
2022-09-04T14:12:53.797Z,1.40
2022-09-04T14:15:26.226Z,1.50
2022-09-04T14:18:09.883Z,1.40
2022-09-04T14:20:40.515Z,1.37
2022-09-04T14:23:16.557Z,1.47
2022-09-04T14:25:55.008Z,1.50
2022-09-04T14:28:24.910Z,1.60
2022-09-04T14:31:10.754Z,1.50
2022-09-04T14:33:54.701Z,1.45
2022-09-04T14:36:57.140Z,1.50
2022-09-04T14:39:41.059Z,1.70
2022-09-04T14:42:28.444Z,1.40
2022-09-04T14:45:31.454Z,1.50
2022-09-04T14:48:10.506Z,1.45
2022-09-04T14:50:58.874Z,1.40
2022-09-04T14:53:32.161Z,1.40
2022-09-04T14:56:18.579Z,1.60
2022-09-04T14:58:50.854Z,1.42
2022-09-04T15:01:30.167Z,1.40
2022-09-04T15:04:07.944Z,1.50
2022-09-04T15:07:11.305Z,1.40
2022-09-04T15:09:43.641Z,1.50
2022-09-04T15:12:25.311Z,1.50
2022-09-04T15:14:57.571Z,1.57
2022-09-04T15:17:29.850Z,1.50
2022-09-04T15:20:02.130Z,1.50
2022-09-04T15:22:43.747Z,1.55
2022-09-04T15:25:54.673Z,1.50
2022-09-04T15:28:03.873Z,1.40
2022-09-04T15:30:41.460Z,1.60
2022-09-04T15:33:07.881Z,1.80
2022-09-04T15:35:37.994Z,1.50
2022-09-04T15:38:26.905Z,1.45
2022-09-04T15:41:16.641Z,1.53
2022-09-04T15:43:40.093Z,1.67
2022-09-04T15:46:30.179Z,1.67
2022-09-04T15:49:17.029Z,1.60
2022-09-04T15:51:51.819Z,1.70
2022-09-04T15:54:24.821Z,1.60
2022-09-04T15:56:54.637Z,1.52
2022-09-04T15:59:35.937Z,1.82
2022-09-04T16:02:13.933Z,1.50
2022-09-04T16:04:51.036Z,1.52
2022-09-04T16:07:23.619Z,1.70
2022-09-04T16:09:54.589Z,1.70
2022-09-04T16:12:24.647Z,1.60
2022-09-04T16:14:54.751Z,1.50
2022-09-04T16:17:31.095Z,1.67
2022-09-04T16:20:18.375Z,1.50
2022-09-04T16:22:55.904Z,1.70
2022-09-04T16:25:32.042Z,1.65
2022-09-04T16:28:15.021Z,1.87
2022-09-04T16:31:00.131Z,1.60
2022-09-04T16:33:29.978Z,1.52
2022-09-04T16:36:06.001Z,1.87
2022-09-04T16:38:37.466Z,1.55
2022-09-04T16:41:13.543Z,1.70
2022-09-04T16:43:47.706Z,1.60
2022-09-04T16:46:32.950Z,1.75
2022-09-04T16:49:07.097Z,1.47
2022-09-04T16:51:41.057Z,1.70
2022-09-04T16:54:08.459Z,1.42
2022-09-04T16:56:37.979Z,1.60
2022-09-04T16:59:11.057Z,1.30
2022-09-04T17:01:41.019Z,1.50
2022-09-04T17:04:29.091Z,1.40
2022-09-04T17:07:04.589Z,1.30
2022-09-04T17:09:40.320Z,1.72
2022-09-04T17:12:18.857Z,1.52
2022-09-04T17:14:51.457Z,1.55
2022-09-04T17:17:31.566Z,1.40
2022-09-04T17:20:10.624Z,1.60
2022-09-04T17:28:56.532Z,1.62
2022-09-04T17:29:08.417Z,1.60
2022-09-04T17:29:13.399Z,1.47
2022-09-04T17:30:45.781Z,1.67
2022-09-04T17:38:17.839Z,1.40
2022-09-04T17:40:33.546Z,1.60
2022-09-04T17:40:55.609Z,1.50
2022-09-04T17:41:39.905Z,1.60
2022-09-04T17:44:03.011Z,1.60
2022-09-04T17:46:42.070Z,1.57
2022-09-04T17:49:19.512Z,1.60
2022-09-04T17:51:52.321Z,1.60
2022-09-04T17:54:27.057Z,1.30
2022-09-04T17:56:58.263Z,1.50
2022-09-04T17:59:45.705Z,1.57
2022-09-04T18:02:14.958Z,1.80
2022-09-04T18:04:46.441Z,1.60
2022-09-04T18:07:44.768Z,1.50
2022-09-04T18:10:00.824Z,1.80
2022-09-04T18:12:31.450Z,1.50
2022-09-04T18:15:33.203Z,1.50
2022-09-04T18:17:40.458Z,1.27
2022-09-04T18:20:11.083Z,1.57
2022-09-04T18:22:47.055Z,1.37
2022-09-04T18:25:17.585Z,1.40
2022-09-04T18:28:11.415Z,1.57
2022-09-04T18:37:09.099Z,1.42
2022-09-04T18:37:17.611Z,1.70
2022-09-04T18:37:22.650Z,1.65
2022-09-04T18:38:33.875Z,1.80
2022-09-04T18:45:11.333Z,1.70
2022-09-04T18:50:21.588Z,1.57
2022-09-04T18:50:30.120Z,1.72
2022-09-04T18:50:36.751Z,1.80
2022-09-04T18:51:38.996Z,1.50
2022-09-04T18:54:27.201Z,1.70
2022-09-04T18:57:00.356Z,1.47
2022-09-04T18:59:39.499Z,1.65
2022-09-04T19:02:13.820Z,1.50
2022-09-04T19:05:02.993Z,1.75
2022-09-04T19:07:46.624Z,1.60
2022-09-04T19:10:27.292Z,1.72
2022-09-04T19:13:00.691Z,1.80
2022-09-04T19:15:37.054Z,1.87
2022-09-04T19:18:15.686Z,1.92
2022-09-04T19:20:54.433Z,2.10
2022-09-04T19:23:28.925Z,1.90
2022-09-04T19:28:29.222Z,1.90
2022-09-04T19:33:31.960Z,1.75
2022-09-04T19:36:01.023Z,1.80
2022-09-04T19:45:39.648Z,1.80
2022-09-04T19:46:09.187Z,9.58
2022-09-04T19:46:26.190Z,4.42
2022-09-04T19:46:31.702Z,2.55
2022-09-04T19:50:54.031Z,1.82
2022-09-04T19:53:21.294Z,2.08
2022-09-04T19:54:15.516Z,1.90
2022-09-04T19:57:31.883Z,1.90
2022-09-04T19:59:45.754Z,2.10
2022-09-04T20:02:22.753Z,1.87
2022-09-04T20:04:52.740Z,2.20
2022-09-04T20:07:37.209Z,1.75
2022-09-04T20:10:06.208Z,1.95
2022-09-04T20:12:39.712Z,2.05
2022-09-04T20:15:22.240Z,1.90
2022-09-04T20:18:12.085Z,1.90
2022-09-04T20:20:46.765Z,1.90
2022-09-04T20:23:35.038Z,1.98
2022-09-04T20:26:27.970Z,1.80
2022-09-04T20:29:20.968Z,2.02
2022-09-04T20:31:58.627Z,2.08
2022-09-04T20:34:32.890Z,1.90
2022-09-04T20:37:08.224Z,1.80
2022-09-04T20:39:49.002Z,2.08
2022-09-04T20:42:26.422Z,2.10
2022-09-04T20:46:46.897Z,2.30
2022-09-04T20:52:44.941Z,3.02
2022-09-04T20:52:59.380Z,2.17
2022-09-04T20:53:12.389Z,2.10
2022-09-04T20:55:48.321Z,1.90
2022-09-04T21:03:11.088Z,1.80
2022-09-04T21:03:18.655Z,2.25
2022-09-04T21:04:06.997Z,2.10
2022-09-04T21:06:41.471Z,2.20
2022-09-04T21:09:30.653Z,2.17
2022-09-04T21:12:08.027Z,2.15
2022-09-04T21:14:45.595Z,2.40
2022-09-04T21:17:37.314Z,2.47
2022-09-04T21:20:11.937Z,2.60
2022-09-04T21:23:03.689Z,4.78
2022-09-04T21:25:51.904Z,3.72
2022-09-04T21:28:23.508Z,2.85
2022-09-04T21:31:19.165Z,2.45
2022-09-04T21:34:11.920Z,2.10
2022-09-04T21:36:49.781Z,1.98
2022-09-04T21:39:45.580Z,2.12
2022-09-04T21:42:22.816Z,2.00
2022-09-04T21:44:54.482Z,2.17
2022-09-04T21:47:44.745Z,2.50
2022-09-04T21:50:48.208Z,2.20
2022-09-04T21:53:45.656Z,2.10
2022-09-04T21:58:14.157Z,2.00
2022-09-04T22:02:28.550Z,2.00
2022-09-04T22:02:44.607Z,2.12
2022-09-04T22:04:25.762Z,1.75
2022-09-04T22:13:26.391Z,2.08
2022-09-04T22:13:30.217Z,1.77
2022-09-04T22:13:39.417Z,2.00
2022-09-04T22:15:37.545Z,2.10
2022-09-04T22:18:09.440Z,2.20
2022-09-04T22:20:53.011Z,2.10
2022-09-04T22:23:39.345Z,2.20
2022-09-04T22:26:23.386Z,2.20
2022-09-04T22:28:55.919Z,2.27
2022-09-04T22:31:29.959Z,2.27
2022-09-04T22:34:16.162Z,2.12
2022-09-04T22:37:13.846Z,2.02
2022-09-04T22:40:19.084Z,2.20
2022-09-04T22:42:53.337Z,2.05
2022-09-04T22:45:46.131Z,2.20
2022-09-04T22:48:33.118Z,2.17
2022-09-04T22:51:28.805Z,2.37
2022-09-04T22:54:12.740Z,2.30
2022-09-04T22:57:05.331Z,2.20
2022-09-04T22:59:48.819Z,2.17
2022-09-04T23:05:54.228Z,2.35
2022-09-04T23:13:50.737Z,2.75
2022-09-04T23:13:54.628Z,2.33
2022-09-04T23:14:38.313Z,2.47
2022-09-04T23:17:22.069Z,2.25
2022-09-04T23:26:31.449Z,2.10
2022-09-04T23:26:47.347Z,2.50
2022-09-04T23:26:50.541Z,2.40
2022-09-04T23:29:07.356Z,2.55
2022-09-04T23:32:07.366Z,2.55
2022-09-04T23:34:34.876Z,2.35
2022-09-04T23:37:06.268Z,2.42
2022-09-04T23:39:43.790Z,2.15
2022-09-04T23:42:20.984Z,7.20
2022-09-04T23:44:59.390Z,5.40
2022-09-04T23:47:48.500Z,2.42
2022-09-04T23:50:15.663Z,2.30
2022-09-04T23:52:56.587Z,2.45
2022-09-04T23:56:12.916Z,2.70
2022-09-04T23:59:21.268Z,2.30
